Weather at Budaörs Airfield

Public forecast

Using degrees Celsius for public forecast. Weather courtesy of forecast.io.

Closest aviation weather report (METAR) to Budaörs Airfield

Closest report is Budapest Liszt Ferenc International Airport, 11.5 nm (21.2 km) E.

2022/12/04 03:30 (retrieved 37 minutes ago)

LHBP 040330Z 08007KT 6000 NSC 03/02 Q1023 NOSIG

Closest aviation forecast (TAF) to Budaörs Airfield

Forecast is more than 6 hours old.

Closest forecast is Sliač Airport, 71.5 nm (132.4 km) N.

2022/12/03 18:33 (retrieved 10 hours ago)

TAF LZSL 031630Z 0318/0406 VRB02KT 9999 SCT025 BKN045 BECMG 0402/0404 5000 BR BKN015 BKN025